OCN62G EDDF-LGMK
Flight info
| Callsign | OCN62G |
|---|---|
| Flight time | 2h 25m |
| Altitude | 37000 |
| Route | CINDY8S/18 CINDY Z74 LAMPU DCT NOMBO Y161 MAH DCT VAVOR DCT RADIZ DCT GORPA DCT EVTON DCT SOLGU DCT AKIKA DCT MAVAR DCT BITLA UN137 AGAPU |
| Aircraft | A320/M-SDE3FGHIRWY/LB1 |
Departure
| Time | 2026-05-08 08:39 |
|---|---|
| Airport | Frankfurt Main Airport (EDDF) |
Arrival
| Time | 2026-05-08 11:05 |
|---|---|
| Airport | Mykonos Island National Airport (LGMK) |
| Time | Latitude | Longitude | Altitude | Speed | Heading |
|---|---|---|---|---|---|
| 2026-05-08 08:06 | 50.04945 | 8.57786 | 365 ft | 0 kts | 21° |
| 2026-05-08 08:24 | 50.04932 | 8.57779 | 363 ft | 4 kts | 22° |
| 2026-05-08 08:24 | 50.04909 | 8.57763 | 364 ft | 2 kts | 24° |
| 2026-05-08 08:25 | 50.04889 | 8.57747 | 360 ft | 4 kts | 48° |
| 2026-05-08 08:25 | 50.04881 | 8.57715 | 360 ft | 4 kts | 109° |
| 2026-05-08 08:25 | 50.04877 | 8.57730 | 363 ft | 4 kts | 112° |
| 2026-05-08 08:25 | 50.04866 | 8.57769 | 362 ft | 4 kts | 113° |
| 2026-05-08 08:26 | 50.04855 | 8.57808 | 361 ft | 4 kts | 113° |
| 2026-05-08 08:26 | 50.04851 | 8.57825 | 360 ft | 0 kts | 113° |
| 2026-05-08 08:28 | 50.04848 | 8.57834 | 359 ft | 4 kts | 116° |
| 2026-05-08 08:28 | 50.04808 | 8.57898 | 360 ft | 12 kts | 150° |
| 2026-05-08 08:28 | 50.04720 | 8.57952 | 362 ft | 13 kts | 158° |
| 2026-05-08 08:29 | 50.04638 | 8.58002 | 360 ft | 11 kts | 160° |
| 2026-05-08 08:29 | 50.04578 | 8.58025 | 361 ft | 6 kts | 189° |
| 2026-05-08 08:29 | 50.04543 | 8.57985 | 367 ft | 11 kts | 236° |
| 2026-05-08 08:29 | 50.04494 | 8.57813 | 366 ft | 23 kts | 249° |
| 2026-05-08 08:30 | 50.04436 | 8.57570 | 364 ft | 25 kts | 250° |
| 2026-05-08 08:30 | 50.04372 | 8.57306 | 361 ft | 27 kts | 249° |
| 2026-05-08 08:30 | 50.04247 | 8.56785 | 361 ft | 21 kts | 248° |
| 2026-05-08 08:31 | 50.04194 | 8.56562 | 362 ft | 22 kts | 249° |
| 2026-05-08 08:31 | 50.04139 | 8.56328 | 358 ft | 20 kts | 249° |
| 2026-05-08 08:31 | 50.04100 | 8.56164 | 355 ft | 12 kts | 250° |
| 2026-05-08 08:31 | 50.04075 | 8.56046 | 355 ft | 11 kts | 253° |
| 2026-05-08 08:32 | 50.04046 | 8.55939 | 355 ft | 12 kts | 246° |
| 2026-05-08 08:32 | 50.04012 | 8.55805 | 353 ft | 16 kts | 250° |
| 2026-05-08 08:32 | 50.03972 | 8.55632 | 356 ft | 18 kts | 250° |
| 2026-05-08 08:32 | 50.03927 | 8.55445 | 351 ft | 19 kts | 250° |
| 2026-05-08 08:33 | 50.03878 | 8.55245 | 358 ft | 20 kts | 249° |
| 2026-05-08 08:33 | 50.03828 | 8.55029 | 353 ft | 22 kts | 249° |
| 2026-05-08 08:33 | 50.03772 | 8.54796 | 352 ft | 24 kts | 249° |
| 2026-05-08 08:33 | 50.03714 | 8.54554 | 347 ft | 25 kts | 250° |
| 2026-05-08 08:34 | 50.03652 | 8.54295 | 348 ft | 24 kts | 250° |
| 2026-05-08 08:34 | 50.03594 | 8.54049 | 343 ft | 25 kts | 249° |
| 2026-05-08 08:34 | 50.03531 | 8.53788 | 338 ft | 27 kts | 250° |
| 2026-05-08 08:34 | 50.03465 | 8.53512 | 336 ft | 28 kts | 249° |
| 2026-05-08 08:35 | 50.03397 | 8.53228 | 333 ft | 26 kts | 250° |
| 2026-05-08 08:35 | 50.03336 | 8.52969 | 335 ft | 23 kts | 248° |
| 2026-05-08 08:35 | 50.03305 | 8.52835 | 333 ft | 6 kts | 252° |
| 2026-05-08 08:35 | 50.03299 | 8.52807 | 333 ft | 0 kts | 249° |
| 2026-05-08 08:36 | 50.03298 | 8.52804 | 333 ft | 1 kts | 248° |
| 2026-05-08 08:36 | 50.03283 | 8.52748 | 331 ft | 9 kts | 248° |
| 2026-05-08 08:36 | 50.03281 | 8.52739 | 332 ft | 0 kts | 248° |
| 2026-05-08 08:37 | 50.03273 | 8.52711 | 331 ft | 6 kts | 248° |
| 2026-05-08 08:37 | 50.03256 | 8.52646 | 333 ft | 5 kts | 247° |
| 2026-05-08 08:37 | 50.03234 | 8.52606 | 331 ft | 6 kts | 209° |
| 2026-05-08 08:38 | 50.03189 | 8.52597 | 334 ft | 0 kts | 180° |
| 2026-05-08 08:38 | 50.03188 | 8.52597 | 335 ft | 2 kts | 180° |
| 2026-05-08 08:39 | 50.02991 | 8.52598 | 335 ft | 65 kts | 179° |
| 2026-05-08 08:39 | 50.02332 | 8.52604 | 335 ft | 125 kts | 179° |
| 2026-05-08 08:39 | 50.01301 | 8.52615 | 382 ft | 165 kts | 180° |
| 2026-05-08 08:39 | 50.00173 | 8.52624 | 1049 ft | 163 kts | 180° |
| 2026-05-08 08:40 | 49.99004 | 8.52643 | 1526 ft | 177 kts | 179° |
| 2026-05-08 08:40 | 49.97702 | 8.52731 | 1844 ft | 199 kts | 168° |
| 2026-05-08 08:40 | 49.96418 | 8.53739 | 2193 ft | 218 kts | 137° |
| 2026-05-08 08:40 | 49.95535 | 8.55683 | 2861 ft | 224 kts | 118° |
| 2026-05-08 08:41 | 49.94789 | 8.57809 | 3666 ft | 225 kts | 119° |
| 2026-05-08 08:41 | 49.94170 | 8.60048 | 4435 ft | 228 kts | 104° |
| 2026-05-08 08:41 | 49.93981 | 8.62552 | 5043 ft | 239 kts | 93° |
| 2026-05-08 08:41 | 49.93889 | 8.65145 | 5518 ft | 257 kts | 93° |
| 2026-05-08 08:42 | 49.93542 | 8.67950 | 6221 ft | 272 kts | 112° |
| 2026-05-08 08:42 | 49.92583 | 8.70488 | 7027 ft | 276 kts | 131° |
| 2026-05-08 08:42 | 49.91142 | 8.72458 | 7798 ft | 278 kts | 146° |
| 2026-05-08 08:42 | 49.89558 | 8.74223 | 8621 ft | 282 kts | 143° |
| 2026-05-08 08:43 | 49.88173 | 8.76409 | 9441 ft | 288 kts | 128° |
| 2026-05-08 08:43 | 49.87119 | 8.79075 | 10236 ft | 293 kts | 121° |
| 2026-05-08 08:43 | 49.86100 | 8.81907 | 10638 ft | 312 kts | 121° |
| 2026-05-08 08:43 | 49.85003 | 8.84951 | 10843 ft | 335 kts | 120° |
| 2026-05-08 08:44 | 49.83825 | 8.88209 | 11018 ft | 358 kts | 120° |
| 2026-05-08 08:44 | 49.82569 | 8.91671 | 11159 ft | 379 kts | 120° |
| 2026-05-08 08:44 | 49.81259 | 8.95272 | 11622 ft | 388 kts | 120° |
| 2026-05-08 08:44 | 49.79922 | 8.98949 | 12250 ft | 393 kts | 120° |
| 2026-05-08 08:45 | 49.78575 | 9.02654 | 12885 ft | 397 kts | 120° |
| 2026-05-08 08:45 | 49.77212 | 9.06402 | 13522 ft | 401 kts | 119° |
| 2026-05-08 08:45 | 49.76079 | 9.10364 | 14084 ft | 406 kts | 109° |
| 2026-05-08 08:45 | 49.75300 | 9.14585 | 14601 ft | 410 kts | 108° |
| 2026-05-08 08:46 | 49.74204 | 9.18663 | 15120 ft | 412 kts | 119° |
| 2026-05-08 08:46 | 49.72629 | 9.22380 | 15635 ft | 415 kts | 129° |
| 2026-05-08 08:46 | 49.70728 | 9.25752 | 16144 ft | 418 kts | 133° |
| 2026-05-08 08:46 | 49.68797 | 9.29127 | 16666 ft | 421 kts | 133° |
| 2026-05-08 08:47 | 49.66861 | 9.32536 | 17165 ft | 424 kts | 132° |
| 2026-05-08 08:47 | 49.64911 | 9.35985 | 17644 ft | 428 kts | 132° |
| 2026-05-08 08:47 | 49.62914 | 9.39417 | 18127 ft | 431 kts | 136° |
| 2026-05-08 08:47 | 49.60633 | 9.42420 | 18562 ft | 432 kts | 146° |
| 2026-05-08 08:48 | 49.58092 | 9.44883 | 18958 ft | 434 kts | 151° |
| 2026-05-08 08:48 | 49.55483 | 9.47257 | 19361 ft | 436 kts | 151° |
| 2026-05-08 08:48 | 49.52871 | 9.49638 | 19785 ft | 439 kts | 151° |
| 2026-05-08 08:48 | 49.52206 | 9.50245 | 19889 ft | 440 kts | 151° |
| 2026-05-08 08:49 | 49.49570 | 9.52650 | 20300 ft | 442 kts | 151° |
| 2026-05-08 08:49 | 49.46918 | 9.55069 | 20711 ft | 444 kts | 151° |
| 2026-05-08 08:49 | 49.44255 | 9.57500 | 21106 ft | 447 kts | 151° |
| 2026-05-08 08:49 | 49.41576 | 9.59940 | 21482 ft | 449 kts | 151° |
| 2026-05-08 08:50 | 49.38882 | 9.62385 | 21864 ft | 451 kts | 151° |
| 2026-05-08 08:50 | 49.36172 | 9.64844 | 22237 ft | 454 kts | 150° |
| 2026-05-08 08:50 | 49.33586 | 9.67645 | 22598 ft | 458 kts | 142° |
| 2026-05-08 08:50 | 49.31262 | 9.71011 | 22978 ft | 461 kts | 136° |
| 2026-05-08 08:51 | 49.28992 | 9.74503 | 23337 ft | 463 kts | 136° |
| 2026-05-08 08:51 | 49.26705 | 9.77999 | 23691 ft | 465 kts | 137° |
| 2026-05-08 08:51 | 49.24404 | 9.81497 | 23972 ft | 468 kts | 137° |
| 2026-05-08 08:51 | 49.22091 | 9.85003 | 24256 ft | 470 kts | 137° |
| 2026-05-08 08:52 | 49.19767 | 9.88530 | 24505 ft | 471 kts | 137° |
| 2026-05-08 08:52 | 49.17435 | 9.92070 | 24783 ft | 473 kts | 137° |
| 2026-05-08 08:52 | 49.15093 | 9.95620 | 25058 ft | 475 kts | 137° |
| 2026-05-08 08:52 | 49.12746 | 9.99170 | 25328 ft | 476 kts | 137° |
| 2026-05-08 08:53 | 49.10389 | 10.02727 | 25599 ft | 478 kts | 137° |
| 2026-05-08 08:53 | 49.08026 | 10.06287 | 25967 ft | 476 kts | 137° |
| 2026-05-08 08:53 | 49.05668 | 10.09832 | 26392 ft | 475 kts | 138° |
| 2026-05-08 08:53 | 49.03294 | 10.13311 | 26793 ft | 473 kts | 139° |
| 2026-05-08 08:54 | 49.00890 | 10.16729 | 27185 ft | 472 kts | 140° |
| 2026-05-08 08:54 | 48.98477 | 10.20095 | 27550 ft | 471 kts | 140° |
| 2026-05-08 08:54 | 48.96050 | 10.23454 | 27955 ft | 470 kts | 140° |
| 2026-05-08 08:54 | 48.93636 | 10.26799 | 28357 ft | 470 kts | 140° |
| 2026-05-08 08:55 | 48.91233 | 10.30157 | 28763 ft | 469 kts | 140° |
| 2026-05-08 08:55 | 48.88845 | 10.33521 | 29173 ft | 468 kts | 140° |
| 2026-05-08 08:55 | 48.86469 | 10.36882 | 29585 ft | 467 kts | 140° |
| 2026-05-08 08:55 | 48.84093 | 10.40237 | 30004 ft | 466 kts | 140° |
| 2026-05-08 08:56 | 48.81742 | 10.43610 | 30377 ft | 465 kts | 139° |
| 2026-05-08 08:56 | 48.80227 | 10.45905 | 30613 ft | 464 kts | 137° |
| 2026-05-08 08:56 | 48.77997 | 10.49445 | 30958 ft | 463 kts | 136° |
| 2026-05-08 08:56 | 48.75815 | 10.53027 | 31297 ft | 462 kts | 135° |
| 2026-05-08 08:57 | 48.73648 | 10.56618 | 31628 ft | 462 kts | 135° |
| 2026-05-08 08:57 | 48.71476 | 10.60191 | 31965 ft | 460 kts | 136° |
| 2026-05-08 08:57 | 48.68582 | 10.64871 | 32427 ft | 459 kts | 136° |
| 2026-05-08 08:57 | 48.66390 | 10.68364 | 32772 ft | 457 kts | 137° |
| 2026-05-08 08:58 | 48.64907 | 10.70713 | 33004 ft | 456 kts | 137° |
| 2026-05-08 08:58 | 48.62716 | 10.74173 | 33348 ft | 455 kts | 137° |
| 2026-05-08 08:58 | 48.60528 | 10.77621 | 33703 ft | 454 kts | 137° |
| 2026-05-08 08:58 | 48.58348 | 10.81061 | 34039 ft | 453 kts | 137° |
| 2026-05-08 08:59 | 48.56184 | 10.84502 | 34339 ft | 452 kts | 137° |
| 2026-05-08 08:59 | 48.54028 | 10.87952 | 34598 ft | 451 kts | 137° |
| 2026-05-08 08:59 | 48.51873 | 10.91403 | 34793 ft | 453 kts | 137° |
| 2026-05-08 08:59 | 48.49738 | 10.94821 | 34994 ft | 454 kts | 137° |
| 2026-05-08 09:00 | 48.47567 | 10.98283 | 35213 ft | 454 kts | 137° |
| 2026-05-08 09:00 | 48.45354 | 11.01766 | 35436 ft | 454 kts | 137° |
| 2026-05-08 09:00 | 48.43158 | 11.05185 | 35667 ft | 454 kts | 138° |
| 2026-05-08 09:00 | 48.40989 | 11.08542 | 35870 ft | 454 kts | 138° |
| 2026-05-08 09:01 | 48.38780 | 11.11956 | 36087 ft | 455 kts | 138° |
| 2026-05-08 09:01 | 48.36546 | 11.15411 | 36291 ft | 455 kts | 137° |
| 2026-05-08 09:01 | 48.34371 | 11.18777 | 36482 ft | 455 kts | 137° |
| 2026-05-08 09:01 | 48.32164 | 11.22191 | 36686 ft | 455 kts | 137° |
| 2026-05-08 09:02 | 48.29956 | 11.25598 | 36837 ft | 456 kts | 138° |
| 2026-05-08 09:02 | 48.27748 | 11.29025 | 37021 ft | 457 kts | 135° |
| 2026-05-08 09:02 | 48.24098 | 11.36970 | 37106 ft | 470 kts | 123° |
| 2026-05-08 09:03 | 48.20835 | 11.45492 | 37105 ft | 472 kts | 123° |
| 2026-05-08 09:03 | 48.17541 | 11.53999 | 37101 ft | 472 kts | 123° |
| 2026-05-08 09:04 | 48.14235 | 11.62493 | 37093 ft | 472 kts | 123° |
| 2026-05-08 09:04 | 48.10916 | 11.70989 | 37105 ft | 473 kts | 123° |
| 2026-05-08 09:05 | 48.07602 | 11.79472 | 37100 ft | 473 kts | 123° |
| 2026-05-08 09:05 | 48.04284 | 11.87951 | 37097 ft | 473 kts | 123° |
| 2026-05-08 09:06 | 48.00951 | 11.96413 | 37079 ft | 473 kts | 124° |
| 2026-05-08 09:06 | 47.97602 | 12.04883 | 37075 ft | 474 kts | 124° |
| 2026-05-08 09:07 | 47.94167 | 12.13266 | 37074 ft | 471 kts | 130° |
| 2026-05-08 09:07 | 47.89657 | 12.20182 | 37084 ft | 463 kts | 144° |
| 2026-05-08 09:08 | 47.84713 | 12.26352 | 37090 ft | 464 kts | 144° |
| 2026-05-08 09:08 | 47.79776 | 12.32530 | 37100 ft | 464 kts | 144° |
| 2026-05-08 09:09 | 47.74834 | 12.38709 | 37091 ft | 464 kts | 144° |
| 2026-05-08 09:09 | 47.69888 | 12.44868 | 37090 ft | 464 kts | 144° |
| 2026-05-08 09:10 | 47.64942 | 12.51001 | 37096 ft | 463 kts | 144° |
| 2026-05-08 09:10 | 47.60269 | 12.57626 | 37101 ft | 468 kts | 137° |
| 2026-05-08 09:11 | 47.55850 | 12.64698 | 37084 ft | 468 kts | 137° |
| 2026-05-08 09:11 | 47.51425 | 12.71758 | 37065 ft | 468 kts | 138° |
| 2026-05-08 09:12 | 47.46994 | 12.78801 | 37065 ft | 468 kts | 138° |
| 2026-05-08 09:12 | 47.42558 | 12.85835 | 37074 ft | 468 kts | 138° |
| 2026-05-08 09:13 | 47.38125 | 12.92853 | 37072 ft | 467 kts | 138° |
| 2026-05-08 09:13 | 47.33683 | 12.99847 | 37062 ft | 467 kts | 138° |
| 2026-05-08 09:14 | 47.29233 | 13.06826 | 37065 ft | 468 kts | 138° |
| 2026-05-08 09:14 | 47.24777 | 13.13815 | 37052 ft | 468 kts | 138° |
| 2026-05-08 09:15 | 47.20357 | 13.20744 | 37067 ft | 467 kts | 138° |
| 2026-05-08 09:15 | 47.15909 | 13.27701 | 37073 ft | 467 kts | 139° |
| 2026-05-08 09:16 | 47.11452 | 13.34638 | 37058 ft | 466 kts | 139° |
| 2026-05-08 09:16 | 47.07000 | 13.41540 | 37062 ft | 466 kts | 139° |
| 2026-05-08 09:17 | 47.02538 | 13.48437 | 37079 ft | 466 kts | 139° |
| 2026-05-08 09:17 | 46.98075 | 13.55338 | 37080 ft | 466 kts | 139° |
| 2026-05-08 09:18 | 46.93609 | 13.62214 | 37063 ft | 466 kts | 139° |
| 2026-05-08 09:18 | 46.89135 | 13.69071 | 37072 ft | 466 kts | 139° |
| 2026-05-08 09:19 | 46.84661 | 13.75927 | 37083 ft | 466 kts | 139° |
| 2026-05-08 09:19 | 46.80184 | 13.82776 | 37089 ft | 466 kts | 139° |
| 2026-05-08 09:20 | 46.75700 | 13.89607 | 37096 ft | 466 kts | 139° |
| 2026-05-08 09:20 | 46.71210 | 13.96432 | 37080 ft | 467 kts | 139° |
| 2026-05-08 09:21 | 46.66707 | 14.03244 | 37090 ft | 467 kts | 139° |
| 2026-05-08 09:23 | 46.50935 | 14.27049 | 37094 ft | 467 kts | 139° |
| 2026-05-08 09:23 | 46.46418 | 14.33818 | 37104 ft | 467 kts | 139° |
| 2026-05-08 09:24 | 46.41891 | 14.40582 | 37110 ft | 467 kts | 139° |
| 2026-05-08 09:24 | 46.37364 | 14.47323 | 37116 ft | 467 kts | 139° |
| 2026-05-08 09:25 | 46.32835 | 14.54055 | 37120 ft | 467 kts | 140° |
| 2026-05-08 09:25 | 46.28307 | 14.60783 | 37110 ft | 467 kts | 140° |
| 2026-05-08 09:26 | 46.23772 | 14.67510 | 37111 ft | 467 kts | 140° |
| 2026-05-08 09:26 | 46.19233 | 14.74215 | 37108 ft | 467 kts | 140° |
| 2026-05-08 09:27 | 46.14694 | 14.80899 | 37117 ft | 466 kts | 140° |
| 2026-05-08 09:27 | 46.10155 | 14.87569 | 37109 ft | 466 kts | 140° |
| 2026-05-08 09:28 | 46.05612 | 14.94220 | 37103 ft | 465 kts | 140° |
| 2026-05-08 09:28 | 46.01070 | 15.00857 | 37107 ft | 466 kts | 140° |
| 2026-05-08 09:29 | 45.96523 | 15.07496 | 37099 ft | 466 kts | 140° |
| 2026-05-08 09:29 | 45.91977 | 15.14112 | 37116 ft | 465 kts | 140° |
| 2026-05-08 09:30 | 45.87428 | 15.20697 | 37110 ft | 464 kts | 140° |
| 2026-05-08 09:30 | 45.82880 | 15.27272 | 37118 ft | 464 kts | 140° |
| 2026-05-08 09:31 | 45.78339 | 15.33830 | 37122 ft | 464 kts | 140° |
| 2026-05-08 09:31 | 45.73844 | 15.40482 | 37121 ft | 465 kts | 138° |
| 2026-05-08 09:32 | 45.69508 | 15.47274 | 37112 ft | 466 kts | 137° |
| 2026-05-08 09:32 | 45.65157 | 15.54135 | 37113 ft | 465 kts | 137° |
| 2026-05-08 09:33 | 45.60781 | 15.60938 | 37113 ft | 465 kts | 138° |
| 2026-05-08 09:33 | 45.56369 | 15.67695 | 37117 ft | 465 kts | 138° |
| 2026-05-08 09:34 | 45.51955 | 15.74444 | 37119 ft | 465 kts | 138° |
| 2026-05-08 09:34 | 45.47556 | 15.81186 | 37103 ft | 465 kts | 138° |
| 2026-05-08 09:35 | 45.43145 | 15.87930 | 37097 ft | 465 kts | 138° |
| 2026-05-08 09:35 | 45.38733 | 15.94650 | 37114 ft | 464 kts | 138° |
| 2026-05-08 09:36 | 45.34315 | 16.01344 | 37118 ft | 464 kts | 138° |
| 2026-05-08 09:36 | 45.29900 | 16.08027 | 37098 ft | 464 kts | 138° |
| 2026-05-08 09:37 | 45.25486 | 16.14706 | 37101 ft | 464 kts | 138° |
| 2026-05-08 09:37 | 45.21064 | 16.21379 | 37115 ft | 464 kts | 138° |
| 2026-05-08 09:38 | 45.16641 | 16.28033 | 37112 ft | 463 kts | 138° |
| 2026-05-08 09:38 | 45.12219 | 16.34670 | 37093 ft | 463 kts | 138° |
| 2026-05-08 09:39 | 45.07803 | 16.41290 | 37102 ft | 462 kts | 138° |
| 2026-05-08 09:39 | 45.03389 | 16.47895 | 37107 ft | 462 kts | 138° |
| 2026-05-08 09:40 | 44.98963 | 16.54472 | 37109 ft | 461 kts | 138° |
| 2026-05-08 09:40 | 44.94542 | 16.61033 | 37093 ft | 461 kts | 138° |
| 2026-05-08 09:41 | 44.90118 | 16.67590 | 37095 ft | 461 kts | 138° |
| 2026-05-08 09:41 | 44.85692 | 16.74137 | 37099 ft | 461 kts | 138° |
| 2026-05-08 09:42 | 44.82015 | 16.79576 | 37101 ft | 461 kts | 138° |
| 2026-05-08 09:42 | 44.77585 | 16.86104 | 37103 ft | 461 kts | 138° |
| 2026-05-08 09:43 | 44.73143 | 16.92625 | 37084 ft | 461 kts | 138° |
| 2026-05-08 09:43 | 44.68503 | 16.98789 | 37076 ft | 458 kts | 144° |
| 2026-05-08 09:44 | 44.63658 | 17.04584 | 37078 ft | 457 kts | 144° |
| 2026-05-08 09:44 | 44.58809 | 17.10373 | 37088 ft | 458 kts | 144° |
| 2026-05-08 09:45 | 44.53953 | 17.16161 | 37093 ft | 458 kts | 144° |
| 2026-05-08 09:45 | 44.49092 | 17.21940 | 37096 ft | 458 kts | 144° |
| 2026-05-08 09:46 | 44.44233 | 17.27706 | 37092 ft | 458 kts | 144° |
| 2026-05-08 09:46 | 44.39376 | 17.33464 | 37104 ft | 457 kts | 144° |
| 2026-05-08 09:47 | 44.34528 | 17.39203 | 37100 ft | 456 kts | 144° |
| 2026-05-08 09:47 | 44.29675 | 17.44922 | 37088 ft | 456 kts | 144° |
| 2026-05-08 09:48 | 44.24834 | 17.50617 | 37088 ft | 455 kts | 144° |
| 2026-05-08 09:48 | 44.19988 | 17.56312 | 37084 ft | 455 kts | 144° |
| 2026-05-08 09:49 | 44.15146 | 17.61982 | 37085 ft | 455 kts | 144° |
| 2026-05-08 09:49 | 44.10310 | 17.67657 | 37090 ft | 455 kts | 143° |
| 2026-05-08 09:50 | 44.05611 | 17.73555 | 37081 ft | 455 kts | 141° |
| 2026-05-08 09:50 | 44.00985 | 17.79564 | 37086 ft | 455 kts | 141° |
| 2026-05-08 09:51 | 43.96333 | 17.85536 | 37080 ft | 455 kts | 142° |
| 2026-05-08 09:51 | 43.91652 | 17.91445 | 37080 ft | 455 kts | 142° |
| 2026-05-08 09:52 | 43.86963 | 17.97320 | 37096 ft | 454 kts | 142° |
| 2026-05-08 09:52 | 43.82278 | 18.03201 | 37097 ft | 454 kts | 142° |
| 2026-05-08 09:53 | 43.77603 | 18.09073 | 37098 ft | 454 kts | 142° |
| 2026-05-08 09:53 | 43.72928 | 18.14930 | 37095 ft | 453 kts | 142° |
| 2026-05-08 09:54 | 43.68255 | 18.20778 | 37095 ft | 453 kts | 142° |
| 2026-05-08 09:54 | 43.66880 | 18.22499 | 37099 ft | 452 kts | 142° |
| 2026-05-08 09:56 | 43.65577 | 18.24117 | 37092 ft | 452 kts | 142° |
| 2026-05-08 09:56 | 43.60904 | 18.29930 | 37092 ft | 452 kts | 142° |
| 2026-05-08 09:57 | 43.53905 | 18.38643 | 37086 ft | 452 kts | 142° |
| 2026-05-08 09:57 | 43.49304 | 18.44332 | 37066 ft | 452 kts | 142° |
| 2026-05-08 09:58 | 43.44632 | 18.50099 | 37059 ft | 451 kts | 142° |
| 2026-05-08 09:58 | 43.39961 | 18.55862 | 37066 ft | 451 kts | 142° |
| 2026-05-08 09:59 | 43.35290 | 18.61609 | 37073 ft | 451 kts | 142° |
| 2026-05-08 09:59 | 43.30617 | 18.67347 | 37073 ft | 451 kts | 142° |
| 2026-05-08 10:00 | 43.25965 | 18.73056 | 37067 ft | 450 kts | 142° |
| 2026-05-08 10:00 | 43.21290 | 18.78765 | 37044 ft | 449 kts | 143° |
| 2026-05-08 10:01 | 43.16606 | 18.84465 | 37053 ft | 451 kts | 142° |
| 2026-05-08 10:01 | 43.11911 | 18.90172 | 37064 ft | 452 kts | 142° |
| 2026-05-08 10:02 | 43.07249 | 18.95839 | 37045 ft | 451 kts | 142° |
| 2026-05-08 10:02 | 43.02525 | 19.01576 | 37055 ft | 452 kts | 142° |
| 2026-05-08 10:03 | 42.97854 | 19.07230 | 37034 ft | 452 kts | 142° |
| 2026-05-08 10:03 | 42.93136 | 19.12913 | 37021 ft | 453 kts | 143° |
| 2026-05-08 10:04 | 42.88413 | 19.18592 | 37020 ft | 452 kts | 142° |
| 2026-05-08 10:04 | 42.83703 | 19.24273 | 37028 ft | 452 kts | 142° |
| 2026-05-08 10:05 | 42.78980 | 19.29944 | 37030 ft | 453 kts | 143° |
| 2026-05-08 10:05 | 42.74250 | 19.35602 | 37015 ft | 452 kts | 143° |
| 2026-05-08 10:06 | 42.69523 | 19.41249 | 37017 ft | 452 kts | 143° |
| 2026-05-08 10:06 | 42.64785 | 19.46890 | 37010 ft | 453 kts | 143° |
| 2026-05-08 10:07 | 42.60050 | 19.52523 | 37022 ft | 453 kts | 143° |
| 2026-05-08 10:07 | 42.55308 | 19.58152 | 37028 ft | 453 kts | 143° |
| 2026-05-08 10:08 | 42.50525 | 19.63702 | 37009 ft | 452 kts | 144° |
| 2026-05-08 10:08 | 42.45615 | 19.69022 | 37037 ft | 452 kts | 146° |
| 2026-05-08 10:09 | 42.40669 | 19.74278 | 37043 ft | 452 kts | 146° |
| 2026-05-08 10:09 | 42.35749 | 19.79571 | 37045 ft | 452 kts | 145° |
| 2026-05-08 10:10 | 42.30832 | 19.84901 | 37047 ft | 453 kts | 145° |
| 2026-05-08 10:10 | 42.25922 | 19.90225 | 37036 ft | 453 kts | 145° |
| 2026-05-08 10:11 | 42.20995 | 19.95534 | 37042 ft | 453 kts | 145° |
| 2026-05-08 10:11 | 42.16060 | 20.00833 | 37046 ft | 454 kts | 145° |
| 2026-05-08 10:12 | 42.11121 | 20.06135 | 37049 ft | 454 kts | 145° |
| 2026-05-08 10:12 | 42.06179 | 20.11433 | 37059 ft | 454 kts | 145° |
| 2026-05-08 10:13 | 42.01261 | 20.16690 | 37035 ft | 455 kts | 145° |
| 2026-05-08 10:13 | 41.96268 | 20.22014 | 37044 ft | 456 kts | 145° |
| 2026-05-08 10:14 | 41.91294 | 20.27302 | 37049 ft | 456 kts | 146° |
| 2026-05-08 10:14 | 41.86342 | 20.32550 | 37056 ft | 457 kts | 146° |
| 2026-05-08 10:15 | 41.81353 | 20.37841 | 37074 ft | 458 kts | 145° |
| 2026-05-08 10:15 | 41.76364 | 20.43133 | 37062 ft | 458 kts | 146° |
| 2026-05-08 10:16 | 41.71360 | 20.48418 | 37058 ft | 459 kts | 146° |
| 2026-05-08 10:16 | 41.66336 | 20.53706 | 37064 ft | 460 kts | 146° |
| 2026-05-08 10:17 | 41.61311 | 20.58995 | 37075 ft | 460 kts | 146° |
| 2026-05-08 10:17 | 41.56287 | 20.64306 | 37090 ft | 461 kts | 146° |
| 2026-05-08 10:18 | 41.51261 | 20.69617 | 37080 ft | 461 kts | 146° |
| 2026-05-08 10:18 | 41.46219 | 20.74928 | 37102 ft | 462 kts | 146° |
| 2026-05-08 10:19 | 41.41163 | 20.80232 | 37118 ft | 463 kts | 146° |
| 2026-05-08 10:20 | 41.33547 | 20.88192 | 37134 ft | 464 kts | 146° |
| 2026-05-08 10:20 | 41.28465 | 20.93503 | 37147 ft | 465 kts | 147° |
| 2026-05-08 10:21 | 41.23365 | 20.98805 | 37129 ft | 466 kts | 147° |
| 2026-05-08 10:21 | 41.18255 | 21.04110 | 37127 ft | 466 kts | 147° |
| 2026-05-08 10:22 | 41.13139 | 21.09419 | 37125 ft | 467 kts | 147° |
| 2026-05-08 10:22 | 41.08017 | 21.14734 | 37101 ft | 467 kts | 147° |
| 2026-05-08 10:23 | 41.02893 | 21.20031 | 37103 ft | 467 kts | 147° |
| 2026-05-08 10:23 | 40.97767 | 21.25315 | 37095 ft | 467 kts | 147° |
| 2026-05-08 10:24 | 40.92628 | 21.30594 | 37104 ft | 468 kts | 147° |
| 2026-05-08 10:24 | 40.87516 | 21.35940 | 37111 ft | 471 kts | 142° |
| 2026-05-08 10:25 | 40.82938 | 21.42189 | 37105 ft | 474 kts | 139° |
| 2026-05-08 10:25 | 40.78390 | 21.48483 | 37113 ft | 474 kts | 139° |
| 2026-05-08 10:26 | 40.73827 | 21.54756 | 37117 ft | 474 kts | 139° |
| 2026-05-08 10:26 | 40.69258 | 21.61020 | 37114 ft | 474 kts | 139° |
| 2026-05-08 10:27 | 40.64691 | 21.67284 | 37114 ft | 474 kts | 139° |
| 2026-05-08 10:27 | 40.60891 | 21.72482 | 37122 ft | 474 kts | 139° |
| 2026-05-08 10:28 | 40.56304 | 21.78744 | 37142 ft | 475 kts | 139° |
| 2026-05-08 10:28 | 40.51728 | 21.84980 | 37136 ft | 475 kts | 139° |
| 2026-05-08 10:29 | 40.47133 | 21.91229 | 37138 ft | 475 kts | 139° |
| 2026-05-08 10:29 | 40.42537 | 21.97469 | 37149 ft | 476 kts | 139° |
| 2026-05-08 10:30 | 40.37928 | 22.03704 | 37155 ft | 476 kts | 139° |
| 2026-05-08 10:30 | 40.33323 | 22.09928 | 37151 ft | 475 kts | 140° |
| 2026-05-08 10:31 | 40.28719 | 22.16135 | 37122 ft | 475 kts | 140° |
| 2026-05-08 10:31 | 40.24101 | 22.22342 | 37113 ft | 475 kts | 140° |
| 2026-05-08 10:32 | 40.19486 | 22.28548 | 37088 ft | 476 kts | 140° |
| 2026-05-08 10:32 | 40.14870 | 22.34744 | 37092 ft | 476 kts | 140° |
| 2026-05-08 10:33 | 40.10412 | 22.40710 | 37104 ft | 476 kts | 140° |
| 2026-05-08 10:33 | 40.05776 | 22.46888 | 37098 ft | 476 kts | 140° |
| 2026-05-08 10:34 | 40.01142 | 22.53050 | 37114 ft | 476 kts | 140° |
| 2026-05-08 10:34 | 39.96510 | 22.59213 | 37128 ft | 475 kts | 140° |
| 2026-05-08 10:35 | 39.91878 | 22.65366 | 37109 ft | 476 kts | 140° |
| 2026-05-08 10:35 | 39.87234 | 22.71502 | 37116 ft | 476 kts | 140° |
| 2026-05-08 10:36 | 39.82588 | 22.77636 | 37116 ft | 475 kts | 140° |
| 2026-05-08 10:36 | 39.77938 | 22.83769 | 37102 ft | 477 kts | 141° |
| 2026-05-08 10:37 | 39.73272 | 22.89909 | 37125 ft | 478 kts | 141° |
| 2026-05-08 10:37 | 39.68597 | 22.96050 | 37136 ft | 478 kts | 141° |
| 2026-05-08 10:38 | 39.63915 | 23.02180 | 37138 ft | 478 kts | 141° |
| 2026-05-08 10:38 | 39.59232 | 23.08299 | 37123 ft | 478 kts | 141° |
| 2026-05-08 10:39 | 39.54538 | 23.14419 | 37116 ft | 479 kts | 141° |
| 2026-05-08 10:39 | 39.49832 | 23.20548 | 37123 ft | 480 kts | 141° |
| 2026-05-08 10:40 | 39.45120 | 23.26680 | 37129 ft | 481 kts | 141° |
| 2026-05-08 10:40 | 39.40424 | 23.32778 | 37143 ft | 482 kts | 141° |
| 2026-05-08 10:41 | 39.35693 | 23.38892 | 37147 ft | 481 kts | 141° |
| 2026-05-08 10:41 | 39.30959 | 23.44998 | 37083 ft | 481 kts | 142° |
| 2026-05-08 10:42 | 39.26213 | 23.51113 | 37091 ft | 483 kts | 142° |
| 2026-05-08 10:42 | 39.21449 | 23.57242 | 37098 ft | 484 kts | 142° |
| 2026-05-08 10:43 | 39.16516 | 23.63068 | 37105 ft | 475 kts | 151° |
| 2026-05-08 10:43 | 39.11186 | 23.68104 | 37116 ft | 475 kts | 151° |
| 2026-05-08 10:44 | 39.05859 | 23.73152 | 37106 ft | 476 kts | 151° |
| 2026-05-08 10:44 | 39.00525 | 23.78208 | 37100 ft | 476 kts | 151° |
| 2026-05-08 10:45 | 38.95176 | 23.83253 | 37120 ft | 477 kts | 152° |
| 2026-05-08 10:45 | 38.89807 | 23.88291 | 37134 ft | 478 kts | 152° |
| 2026-05-08 10:46 | 38.84432 | 23.93332 | 37139 ft | 479 kts | 152° |
| 2026-05-08 10:46 | 38.79057 | 23.98372 | 37120 ft | 479 kts | 152° |
| 2026-05-08 10:47 | 38.73677 | 24.03413 | 37017 ft | 481 kts | 152° |
| 2026-05-08 10:47 | 38.70975 | 24.05941 | 36755 ft | 481 kts | 152° |
| 2026-05-08 10:47 | 38.68286 | 24.08456 | 36489 ft | 482 kts | 152° |
| 2026-05-08 10:47 | 38.65573 | 24.10991 | 36231 ft | 484 kts | 152° |
| 2026-05-08 10:48 | 38.62848 | 24.13530 | 35985 ft | 484 kts | 152° |
| 2026-05-08 10:48 | 38.60125 | 24.16060 | 35738 ft | 485 kts | 152° |
| 2026-05-08 10:48 | 38.57389 | 24.18598 | 35469 ft | 486 kts | 152° |
| 2026-05-08 10:48 | 38.54640 | 24.21148 | 34489 ft | 493 kts | 153° |
| 2026-05-08 10:49 | 38.51843 | 24.23740 | 33467 ft | 498 kts | 153° |
| 2026-05-08 10:49 | 38.49031 | 24.26348 | 32438 ft | 502 kts | 153° |
| 2026-05-08 10:49 | 38.46219 | 24.28959 | 31674 ft | 498 kts | 153° |
| 2026-05-08 10:49 | 38.43434 | 24.31549 | 30283 ft | 495 kts | 153° |
| 2026-05-08 10:50 | 38.40556 | 24.33913 | 29023 ft | 493 kts | 158° |
| 2026-05-08 10:50 | 38.37596 | 24.36131 | 27887 ft | 495 kts | 158° |
| 2026-05-08 10:50 | 38.34623 | 24.38373 | 26677 ft | 498 kts | 156° |
| 2026-05-08 10:50 | 38.31626 | 24.40640 | 25398 ft | 504 kts | 156° |
| 2026-05-08 10:51 | 38.28599 | 24.42936 | 24161 ft | 509 kts | 155° |
| 2026-05-08 10:51 | 38.25556 | 24.45246 | 22934 ft | 510 kts | 155° |
| 2026-05-08 10:51 | 38.22543 | 24.47534 | 22312 ft | 498 kts | 155° |
| 2026-05-08 10:51 | 38.19609 | 24.49762 | 21150 ft | 484 kts | 154° |
| 2026-05-08 10:52 | 38.16774 | 24.51904 | 20240 ft | 478 kts | 154° |
| 2026-05-08 10:52 | 38.13891 | 24.54068 | 19440 ft | 474 kts | 154° |
| 2026-05-08 10:52 | 38.11096 | 24.56157 | 18620 ft | 470 kts | 154° |
| 2026-05-08 10:52 | 38.08289 | 24.58253 | 17760 ft | 467 kts | 154° |
| 2026-05-08 10:53 | 38.05507 | 24.60330 | 16984 ft | 462 kts | 154° |
| 2026-05-08 10:53 | 38.02778 | 24.62421 | 16210 ft | 452 kts | 150° |
| 2026-05-08 10:53 | 38.00392 | 24.64971 | 14914 ft | 447 kts | 139° |
| 2026-05-08 10:53 | 37.98180 | 24.67692 | 13580 ft | 439 kts | 139° |
| 2026-05-08 10:54 | 37.96025 | 24.70375 | 12414 ft | 427 kts | 139° |
| 2026-05-08 10:54 | 37.93985 | 24.72929 | 12031 ft | 397 kts | 139° |
| 2026-05-08 10:54 | 37.92096 | 24.75295 | 11824 ft | 367 kts | 139° |
| 2026-05-08 10:54 | 37.90346 | 24.77477 | 11701 ft | 340 kts | 139° |
| 2026-05-08 10:55 | 37.88709 | 24.79507 | 11387 ft | 322 kts | 140° |
| 2026-05-08 10:55 | 37.87120 | 24.81459 | 10840 ft | 315 kts | 140° |
| 2026-05-08 10:55 | 37.85558 | 24.83367 | 10353 ft | 308 kts | 140° |
| 2026-05-08 10:55 | 37.84019 | 24.85245 | 10132 ft | 306 kts | 140° |
| 2026-05-08 10:56 | 37.82494 | 24.87107 | 9999 ft | 305 kts | 140° |
| 2026-05-08 10:56 | 37.80969 | 24.88970 | 9868 ft | 304 kts | 140° |
| 2026-05-08 10:56 | 37.79453 | 24.90825 | 9735 ft | 302 kts | 140° |
| 2026-05-08 10:56 | 37.77945 | 24.92673 | 9536 ft | 303 kts | 140° |
| 2026-05-08 10:57 | 37.76430 | 24.94528 | 9068 ft | 303 kts | 140° |
| 2026-05-08 10:57 | 37.74932 | 24.96373 | 8659 ft | 298 kts | 140° |
| 2026-05-08 10:57 | 37.72005 | 24.99977 | 7517 ft | 288 kts | 140° |
| 2026-05-08 10:58 | 37.70584 | 25.01722 | 6992 ft | 282 kts | 140° |
| 2026-05-08 10:58 | 37.69186 | 25.03433 | 6515 ft | 278 kts | 140° |
| 2026-05-08 10:58 | 37.67801 | 25.05122 | 5889 ft | 276 kts | 140° |
| 2026-05-08 10:58 | 37.66436 | 25.06788 | 5361 ft | 271 kts | 140° |
| 2026-05-08 10:59 | 37.65112 | 25.08457 | 4969 ft | 269 kts | 136° |
| 2026-05-08 10:59 | 37.63869 | 25.10229 | 4590 ft | 269 kts | 135° |
| 2026-05-08 10:59 | 37.62658 | 25.12020 | 4219 ft | 266 kts | 134° |
| 2026-05-08 10:59 | 37.61530 | 25.13717 | 4090 ft | 251 kts | 134° |
| 2026-05-08 11:00 | 37.60435 | 25.15368 | 3714 ft | 246 kts | 134° |
| 2026-05-08 11:00 | 37.59338 | 25.17010 | 3407 ft | 240 kts | 133° |
| 2026-05-08 11:00 | 37.58269 | 25.18607 | 2935 ft | 235 kts | 134° |
| 2026-05-08 11:00 | 37.57232 | 25.20153 | 2742 ft | 223 kts | 134° |
| 2026-05-08 11:01 | 37.56277 | 25.21576 | 2618 ft | 205 kts | 135° |
| 2026-05-08 11:01 | 37.55387 | 25.22896 | 2531 ft | 191 kts | 135° |
| 2026-05-08 11:01 | 37.54549 | 25.24140 | 2447 ft | 186 kts | 135° |
| 2026-05-08 11:01 | 37.53714 | 25.25375 | 2347 ft | 180 kts | 135° |
| 2026-05-08 11:02 | 37.52931 | 25.26536 | 2266 ft | 167 kts | 135° |
| 2026-05-08 11:02 | 37.51547 | 25.28589 | 2149 ft | 145 kts | 136° |
| 2026-05-08 11:02 | 37.50881 | 25.29494 | 2070 ft | 141 kts | 143° |
| 2026-05-08 11:03 | 37.50159 | 25.30315 | 1876 ft | 139 kts | 145° |
| 2026-05-08 11:03 | 37.49423 | 25.31084 | 1639 ft | 137 kts | 146° |
| 2026-05-08 11:03 | 37.48669 | 25.31844 | 1455 ft | 145 kts | 147° |
| 2026-05-08 11:03 | 37.47820 | 25.32616 | 1292 ft | 151 kts | 149° |
| 2026-05-08 11:04 | 37.46933 | 25.33255 | 1021 ft | 142 kts | 156° |
| 2026-05-08 11:04 | 37.46044 | 25.33726 | 771 ft | 137 kts | 162° |
| 2026-05-08 11:04 | 37.45144 | 25.34104 | 588 ft | 135 kts | 163° |
| 2026-05-08 11:04 | 37.44285 | 25.34482 | 422 ft | 124 kts | 163° |
| 2026-05-08 11:05 | 37.43631 | 25.34771 | 411 ft | 67 kts | 161° |
| 2026-05-08 11:05 | 37.43437 | 25.34843 | 411 ft | 11 kts | 198° |
| 2026-05-08 11:05 | 37.43422 | 25.34775 | 409 ft | 9 kts | 289° |
| 2026-05-08 11:05 | 37.43471 | 25.34728 | 408 ft | 8 kts | 335° |
| 2026-05-08 11:06 | 37.43516 | 25.34707 | 408 ft | 6 kts | 340° |
| 2026-05-08 11:06 | 37.43550 | 25.34690 | 408 ft | 4 kts | 326° |
| 2026-05-08 11:06 | 37.43551 | 25.34662 | 407 ft | 3 kts | 262° |
| 2026-05-08 11:06 | 37.43545 | 25.34637 | 407 ft | 2 kts | 252° |
| 2026-05-08 11:07 | 37.43542 | 25.34624 | 407 ft | 1 kts | 252° |
| 2026-05-08 11:07 | 37.43542 | 25.34623 | 407 ft | 0 kts | 252° |